createdAt,value
2023-05-19T00:06:16.400Z,6.38
2023-05-19T00:08:44.276Z,6.50
2023-05-19T00:11:12.194Z,6.07
2023-05-19T00:13:40.097Z,6.07
2023-05-19T00:16:08.128Z,6.07
2023-05-19T00:18:36.308Z,5.68
2023-05-19T00:21:03.955Z,5.82
2023-05-19T00:23:31.911Z,6.25
2023-05-19T00:25:59.851Z,6.18
2023-05-19T00:28:28.486Z,5.88
2023-05-19T00:30:56.739Z,5.90
2023-05-19T00:33:24.262Z,6.10
2023-05-19T00:35:55.107Z,5.68
2023-05-19T00:38:23.209Z,5.97
2023-05-19T00:40:54.794Z,6.18
2023-05-19T00:43:22.618Z,6.05
2023-05-19T00:45:52.689Z,6.13
2023-05-19T00:48:21.170Z,6.10
2023-05-19T00:50:50.534Z,5.78
2023-05-19T00:53:20.052Z,6.43
2023-05-19T00:55:53.626Z,5.88
2023-05-19T00:58:24.622Z,6.05
2023-05-19T01:00:56.149Z,6.13
2023-05-19T01:03:23.959Z,6.10
2023-05-19T01:05:55.585Z,5.95
2023-05-19T01:08:23.425Z,6.65
2023-05-19T01:10:51.970Z,6.00
2023-05-19T01:13:22.392Z,6.28
2023-05-19T01:15:56.034Z,6.70
2023-05-19T01:18:31.440Z,5.97
2023-05-19T01:21:10.770Z,6.38
2023-05-19T01:23:52.089Z,6.57
2023-05-19T01:26:52.274Z,6.90
2023-05-19T01:29:29.839Z,6.63
2023-05-19T01:32:00.544Z,6.80
2023-05-19T01:34:39.820Z,6.15
2023-05-19T01:37:08.353Z,6.50
2023-05-19T01:39:36.493Z,6.85
2023-05-19T01:42:04.966Z,6.43
2023-05-19T01:44:34.987Z,6.03
2023-05-19T01:47:03.392Z,6.57
2023-05-19T01:49:33.082Z,6.07
2023-05-19T01:52:00.771Z,6.80
2023-05-19T01:54:28.404Z,6.35
2023-05-19T01:57:01.368Z,6.30
2023-05-19T01:59:48.217Z,5.70
2023-05-19T02:02:30.765Z,5.97
2023-05-19T02:05:01.801Z,6.22
2023-05-19T02:07:44.562Z,6.90
2023-05-19T02:10:22.401Z,6.72
2023-05-19T02:12:54.254Z,6.40
2023-05-19T02:15:23.389Z,7.18
2023-05-19T02:17:56.707Z,6.80
2023-05-19T02:20:25.907Z,6.90
2023-05-19T02:22:53.545Z,6.97
2023-05-19T02:25:23.528Z,7.07
2023-05-19T02:27:52.073Z,7.13
2023-05-19T02:30:20.576Z,6.30
2023-05-19T02:32:48.433Z,7.10
2023-05-19T02:35:17.961Z,6.75
2023-05-19T02:38:02.393Z,8.23
2023-05-19T02:40:35.431Z,6.40
2023-05-19T02:45:31.584Z,6.38
2023-05-19T02:48:00.322Z,7.03
2023-05-19T02:50:29.978Z,7.50
2023-05-19T02:52:58.231Z,7.22
2023-05-19T02:55:27.555Z,7.13
2023-05-19T02:57:55.836Z,6.95
2023-05-19T03:00:23.717Z,8.05
2023-05-19T03:02:53.426Z,6.65
2023-05-19T03:05:24.772Z,7.00
2023-05-19T03:07:52.920Z,6.97
2023-05-19T03:10:23.517Z,7.78
2023-05-19T03:12:52.795Z,7.47
2023-05-19T03:15:23.499Z,8.40
2023-05-19T03:17:52.727Z,7.35
2023-05-19T03:20:24.681Z,7.78
2023-05-19T03:22:56.181Z,7.68
2023-05-19T03:25:26.133Z,7.63
2023-05-19T03:27:54.208Z,7.47
2023-05-19T03:30:26.132Z,8.82
2023-05-19T03:33:05.738Z,7.38
2023-05-19T03:35:33.583Z,7.85
2023-05-19T03:38:01.407Z,7.95
2023-05-19T03:40:31.472Z,7.88
2023-05-19T03:43:05.704Z,7.72
2023-05-19T03:45:39.021Z,7.72
2023-05-19T03:48:26.828Z,8.10
2023-05-19T03:51:35.009Z,7.65
2023-05-19T03:54:11.654Z,9.60
2023-05-19T03:56:43.824Z,8.00
2023-05-19T03:59:12.742Z,8.23
2023-05-19T04:01:40.597Z,7.82
2023-05-19T04:04:08.257Z,8.55
2023-05-19T04:06:36.644Z,8.45
2023-05-19T04:09:12.163Z,8.77
2023-05-19T04:11:40.525Z,8.20
2023-05-19T04:14:08.510Z,8.40
2023-05-19T04:16:36.343Z,8.63
2023-05-19T04:19:04.903Z,8.60
2023-05-19T04:21:32.706Z,9.25
2023-05-19T04:24:00.482Z,8.30
2023-05-19T04:26:31.717Z,8.45
2023-05-19T04:28:59.378Z,9.30
2023-05-19T04:31:28.739Z,8.70
2023-05-19T04:33:56.511Z,8.27
2023-05-19T04:36:26.813Z,8.98
2023-05-19T04:39:07.097Z,8.07
2023-05-19T04:41:35.238Z,8.95
2023-05-19T04:44:07.695Z,8.40
2023-05-19T04:46:36.789Z,8.25
2023-05-19T04:49:05.770Z,8.05
2023-05-19T04:51:33.471Z,8.18
2023-05-19T04:54:02.619Z,9.02
2023-05-19T04:56:30.219Z,9.50
2023-05-19T04:58:58.562Z,8.48
2023-05-19T05:01:28.052Z,9.35
2023-05-19T05:03:59.050Z,8.35
2023-05-19T05:08:57.074Z,8.38
2023-05-19T05:11:26.758Z,9.38
2023-05-19T05:13:58.290Z,8.10
2023-05-19T05:16:29.309Z,8.90
2023-05-19T05:18:58.821Z,8.77
2023-05-19T05:21:26.749Z,9.10
2023-05-19T05:23:54.693Z,8.27
2023-05-19T05:26:27.004Z,8.57
2023-05-19T05:28:56.656Z,8.40
2023-05-19T05:31:24.812Z,8.57
2023-05-19T05:33:54.452Z,8.52
2023-05-19T05:36:26.180Z,7.85
2023-05-19T05:38:54.501Z,8.68
2023-05-19T05:41:24.539Z,8.45
2023-05-19T05:43:53.492Z,8.77
2023-05-19T05:46:21.727Z,7.63
2023-05-19T05:48:50.635Z,7.80
2023-05-19T05:51:18.495Z,8.75
2023-05-19T05:53:47.810Z,8.07
2023-05-19T05:56:17.737Z,8.60
2023-05-19T05:58:58.933Z,7.53
2023-05-19T06:01:28.428Z,8.43
2023-05-19T06:03:56.180Z,8.48
2023-05-19T06:06:27.704Z,7.85
2023-05-19T06:08:57.743Z,8.23
2023-05-19T06:11:26.292Z,7.30
2023-05-19T06:13:55.156Z,7.35
2023-05-19T06:16:56.137Z,7.70
2023-05-19T06:19:25.463Z,7.13
2023-05-19T06:22:00.045Z,6.55
2023-05-19T06:24:28.069Z,7.10
2023-05-19T06:26:55.795Z,6.65
2023-05-19T06:29:23.498Z,6.82
2023-05-19T06:31:53.460Z,6.75
2023-05-19T06:34:23.650Z,6.55
2023-05-19T06:36:52.497Z,6.22
2023-05-19T06:39:25.033Z,6.22
2023-05-19T06:41:52.755Z,6.85
2023-05-19T06:44:39.262Z,6.13
2023-05-19T06:47:11.766Z,5.70
2023-05-19T06:49:39.842Z,5.95
2023-05-19T06:52:08.779Z,5.63
2023-05-19T06:54:37.293Z,5.13
2023-05-19T06:57:06.838Z,5.18
2023-05-19T06:59:37.878Z,5.00
2023-05-19T07:02:06.498Z,5.15
2023-05-19T07:04:34.723Z,4.45
2023-05-19T07:07:02.811Z,4.38
2023-05-19T07:09:31.034Z,4.55
2023-05-19T07:11:59.508Z,4.28
2023-05-19T07:14:28.081Z,4.03
2023-05-19T07:16:56.308Z,4.47
2023-05-19T07:19:25.059Z,4.40
2023-05-19T07:21:55.682Z,4.55
2023-05-19T07:24:26.177Z,5.05
2023-05-19T07:29:23.567Z,4.50
2023-05-19T07:31:57.783Z,4.85
2023-05-19T07:34:26.062Z,5.20
2023-05-19T07:36:53.509Z,5.13
2023-05-19T07:39:22.191Z,4.43
2023-05-19T07:41:54.265Z,5.15
2023-05-19T07:44:23.160Z,4.72
2023-05-19T07:46:52.070Z,4.85
2023-05-19T07:49:20.884Z,4.97
2023-05-19T07:51:49.537Z,4.82
2023-05-19T07:54:18.458Z,4.97
2023-05-19T07:56:46.226Z,4.38
2023-05-19T07:59:14.296Z,4.47
2023-05-19T08:01:42.479Z,4.10
2023-05-19T08:04:12.967Z,4.10
2023-05-19T08:06:42.918Z,4.38
2023-05-19T08:09:10.755Z,4.23
2023-05-19T08:11:39.768Z,4.13
2023-05-19T08:14:07.515Z,4.43
2023-05-19T08:16:35.614Z,3.90
2023-05-19T08:19:05.476Z,4.15
2023-05-19T08:21:37.700Z,4.07
2023-05-19T08:24:09.039Z,3.65
2023-05-19T08:26:37.831Z,3.78
2023-05-19T08:29:06.114Z,3.53
2023-05-19T08:31:34.862Z,3.78
2023-05-19T08:34:02.593Z,3.63
2023-05-19T08:36:31.549Z,3.80
2023-05-19T08:39:00.015Z,3.70
2023-05-19T08:41:27.765Z,3.70
2023-05-19T08:43:55.398Z,2.72
2023-05-19T08:46:27.754Z,3.03
2023-05-19T08:48:58.125Z,3.55
2023-05-19T08:51:45.903Z,2.95
2023-05-19T08:54:16.434Z,2.75
2023-05-19T08:56:44.828Z,2.95
2023-05-19T08:59:15.008Z,3.17
2023-05-19T09:01:46.143Z,2.50
2023-05-19T09:04:14.436Z,2.50
2023-05-19T09:06:44.666Z,2.15
2023-05-19T09:09:15.782Z,2.53
2023-05-19T09:11:46.626Z,2.13
2023-05-19T09:14:14.785Z,2.50
2023-05-19T09:16:42.807Z,2.30
2023-05-19T09:19:16.549Z,2.53
2023-05-19T09:21:46.069Z,2.65
2023-05-19T09:24:14.144Z,2.20
2023-05-19T09:26:42.923Z,2.30
2023-05-19T09:29:17.519Z,2.00
2023-05-19T09:31:56.114Z,1.70
2023-05-19T09:34:25.207Z,1.88
2023-05-19T09:36:55.117Z,2.03
2023-05-19T09:39:23.970Z,2.38
2023-05-19T09:41:58.819Z,2.10
2023-05-19T09:44:31.505Z,1.80
2023-05-19T09:47:00.294Z,2.45
2023-05-19T09:49:33.097Z,2.13
2023-05-19T09:52:04.055Z,2.30
2023-05-19T09:54:32.483Z,2.42
2023-05-19T09:57:01.079Z,2.30
2023-05-19T09:59:32.331Z,2.30
2023-05-19T10:02:01.631Z,2.42
2023-05-19T10:04:30.815Z,2.08
2023-05-19T10:07:05.784Z,1.90
2023-05-19T10:09:35.059Z,1.95
2023-05-19T10:12:03.378Z,2.38
2023-05-19T10:14:31.472Z,2.38
2023-05-19T10:16:59.910Z,2.30
2023-05-19T10:19:28.939Z,1.98
2023-05-19T10:21:57.385Z,2.20
2023-05-19T10:24:25.453Z,1.92
2023-05-19T10:27:00.135Z,2.30
2023-05-19T10:29:33.182Z,1.98
2023-05-19T10:32:07.767Z,1.95
2023-05-19T10:34:57.453Z,2.20
2023-05-19T10:37:45.429Z,1.80
2023-05-19T10:40:20.546Z,2.15
2023-05-19T10:43:09.528Z,2.10
2023-05-19T10:45:41.530Z,1.92
2023-05-19T10:48:16.070Z,1.92
2023-05-19T10:50:47.512Z,2.03
2023-05-19T10:53:18.469Z,2.35
2023-05-19T10:55:53.855Z,1.75
2023-05-19T10:58:40.319Z,2.00
2023-05-19T11:01:11.431Z,2.13
2023-05-19T11:03:54.102Z,1.90
2023-05-19T11:06:22.708Z,2.33
2023-05-19T11:08:53.600Z,1.88
2023-05-19T11:11:23.468Z,1.90
2023-05-19T11:13:52.398Z,2.05
2023-05-19T11:16:24.434Z,2.08
2023-05-19T11:18:54.675Z,1.85
2023-05-19T11:23:50.444Z,1.80
2023-05-19T11:26:38.068Z,1.90
2023-05-19T11:29:06.128Z,2.42
2023-05-19T11:31:37.013Z,2.08
2023-05-19T11:34:08.104Z,1.90
2023-05-19T11:36:37.184Z,2.10
2023-05-19T11:39:06.496Z,2.28
2023-05-19T11:41:34.264Z,1.60
2023-05-19T11:44:03.110Z,2.08
2023-05-19T11:46:32.487Z,1.75
2023-05-19T11:49:00.194Z,2.08
2023-05-19T11:51:28.029Z,2.00
2023-05-19T11:54:02.171Z,2.00
2023-05-19T11:56:36.671Z,2.35
2023-05-19T11:59:05.018Z,1.60
2023-05-19T12:01:36.015Z,2.10
2023-05-19T12:04:04.381Z,1.80
2023-05-19T12:06:32.073Z,1.80
2023-05-19T12:09:00.389Z,1.80
2023-05-19T12:11:29.591Z,2.28
2023-05-19T12:14:00.441Z,2.13
2023-05-19T12:16:38.071Z,1.35
2023-05-19T12:21:36.341Z,1.80
2023-05-19T12:24:04.192Z,1.90
2023-05-19T12:26:32.436Z,1.83
2023-05-19T12:29:00.274Z,1.90
2023-05-19T12:31:28.034Z,1.77
2023-05-19T12:33:56.572Z,2.08
2023-05-19T12:36:26.854Z,1.80
2023-05-19T12:38:55.513Z,2.17
2023-05-19T12:41:24.948Z,2.00
2023-05-19T12:43:52.865Z,2.08
2023-05-19T12:46:22.976Z,2.17
2023-05-19T12:48:52.221Z,2.28
2023-05-19T12:51:23.238Z,2.00
2023-05-19T12:53:52.402Z,1.98
2023-05-19T12:56:23.789Z,2.50
2023-05-19T12:58:55.774Z,2.13
2023-05-19T13:01:24.501Z,2.08
2023-05-19T13:03:53.994Z,1.83
2023-05-19T13:06:28.234Z,2.03
2023-05-19T13:08:56.212Z,1.77
2023-05-19T13:11:24.372Z,1.83
2023-05-19T13:13:52.971Z,1.50
2023-05-19T13:16:21.392Z,2.50
2023-05-19T13:18:50.884Z,2.15
2023-05-19T13:21:21.294Z,1.85
2023-05-19T13:23:58.162Z,2.30
2023-05-19T13:26:25.996Z,2.20
2023-05-19T13:28:54.306Z,2.38
2023-05-19T13:31:22.798Z,2.22
2023-05-19T13:33:54.892Z,1.98
2023-05-19T13:36:24.329Z,2.15
2023-05-19T13:38:57.230Z,1.85
2023-05-19T13:41:29.724Z,2.03
2023-05-19T13:44:01.831Z,1.92
2023-05-19T13:46:40.770Z,2.20
2023-05-19T13:49:12.961Z,1.58
2023-05-19T13:51:41.450Z,1.67
2023-05-19T13:54:09.433Z,1.70
2023-05-19T13:56:37.570Z,2.15
2023-05-19T13:59:05.431Z,2.15
2023-05-19T14:01:33.319Z,1.80
2023-05-19T14:04:01.358Z,1.77
2023-05-19T14:06:29.306Z,2.22
2023-05-19T14:08:57.483Z,1.95
2023-05-19T14:11:25.685Z,2.10
2023-05-19T14:13:55.124Z,2.05
2023-05-19T14:16:28.776Z,1.80
2023-05-19T14:18:56.474Z,1.83
2023-05-19T14:21:27.589Z,2.47
2023-05-19T14:23:55.471Z,1.83
2023-05-19T14:26:23.942Z,2.00
2023-05-19T14:28:57.672Z,1.80
2023-05-19T14:31:25.550Z,1.65
2023-05-19T14:33:54.013Z,1.85
2023-05-19T14:36:25.029Z,2.30
2023-05-19T14:38:52.710Z,1.58
2023-05-19T14:41:23.475Z,1.75
2023-05-19T14:43:52.518Z,1.77
2023-05-19T14:46:21.047Z,1.70
2023-05-19T14:48:52.166Z,1.70
2023-05-19T14:51:22.846Z,1.77
2023-05-19T14:53:51.640Z,2.20
2023-05-19T14:56:29.285Z,1.70
2023-05-19T14:58:58.173Z,1.88
2023-05-19T15:01:26.238Z,1.85
2023-05-19T15:03:56.761Z,1.75
2023-05-19T15:06:24.468Z,2.10
2023-05-19T15:08:53.105Z,2.08
2023-05-19T15:11:22.680Z,2.00
2023-05-19T15:13:54.977Z,1.58
2023-05-19T15:16:24.830Z,2.15
2023-05-19T15:18:53.707Z,1.52
2023-05-19T15:21:28.410Z,1.98
2023-05-19T15:23:57.129Z,2.20
2023-05-19T15:26:25.174Z,1.65
2023-05-19T15:28:54.525Z,2.20
2023-05-19T15:31:23.580Z,1.65
2023-05-19T15:33:52.382Z,1.42
2023-05-19T15:36:26.603Z,1.85
2023-05-19T15:38:54.282Z,1.80
2023-05-19T15:41:24.561Z,2.00
2023-05-19T15:46:23.634Z,2.30
2023-05-19T15:48:55.534Z,2.42
2023-05-19T15:51:23.597Z,2.20
2023-05-19T15:53:53.261Z,2.13
2023-05-19T15:56:24.786Z,2.63
2023-05-19T15:58:53.162Z,2.22
2023-05-19T16:01:24.439Z,2.35
2023-05-19T16:03:53.811Z,2.38
2023-05-19T16:06:24.734Z,2.20
2023-05-19T16:08:56.031Z,2.30
2023-05-19T16:11:23.822Z,2.15
2023-05-19T16:13:52.704Z,1.88
2023-05-19T16:16:22.448Z,2.70
2023-05-19T16:18:50.643Z,2.33
2023-05-19T16:21:18.410Z,1.95
2023-05-19T16:23:53.876Z,2.25
2023-05-19T16:26:26.610Z,3.03
2023-05-19T16:28:54.281Z,2.40
2023-05-19T16:31:23.658Z,2.35
2023-05-19T16:33:53.991Z,2.07
2023-05-19T16:36:23.670Z,2.30
2023-05-19T16:38:51.771Z,2.22
2023-05-19T16:41:21.612Z,2.70
2023-05-19T16:43:50.665Z,2.72
2023-05-19T16:46:18.370Z,5.63
2023-05-19T16:48:47.324Z,2.53
2023-05-19T16:51:15.453Z,2.10
2023-05-19T16:53:43.440Z,2.20
2023-05-19T16:56:11.529Z,2.60
2023-05-19T16:58:39.191Z,2.45
2023-05-19T17:01:08.247Z,1.77
2023-05-19T17:03:37.806Z,1.92
2023-05-19T17:06:08.922Z,2.20
2023-05-19T17:08:36.968Z,1.90
2023-05-19T17:11:06.652Z,2.10
2023-05-19T17:16:04.652Z,1.92
2023-05-19T17:18:35.540Z,1.88
2023-05-19T17:21:05.027Z,1.95
2023-05-19T17:23:33.296Z,2.07
2023-05-19T17:26:02.139Z,1.95
2023-05-19T17:28:29.978Z,2.15
2023-05-19T17:30:57.852Z,1.70
2023-05-19T17:33:25.949Z,2.00
2023-05-19T17:35:56.048Z,1.95
2023-05-19T17:38:24.662Z,1.92
2023-05-19T17:40:53.758Z,1.80
2023-05-19T17:43:31.506Z,2.50
2023-05-19T17:46:01.053Z,2.15
2023-05-19T17:48:31.548Z,1.67
2023-05-19T17:50:59.728Z,2.30
2023-05-19T17:53:28.013Z,1.70
2023-05-19T17:56:03.117Z,2.00
2023-05-19T17:58:31.404Z,1.60
2023-05-19T18:00:59.663Z,1.77
2023-05-19T18:03:27.715Z,1.77
2023-05-19T18:05:56.244Z,1.65
2023-05-19T18:08:24.171Z,1.60
2023-05-19T18:10:53.852Z,1.90
2023-05-19T18:13:26.613Z,2.10
2023-05-19T18:15:55.518Z,1.80
2023-05-19T18:18:27.431Z,2.20
2023-05-19T18:20:55.483Z,1.98
2023-05-19T18:23:27.083Z,2.00
2023-05-19T18:26:00.515Z,1.90
2023-05-19T18:28:29.709Z,1.70
2023-05-19T18:31:05.675Z,1.50
2023-05-19T18:33:33.679Z,2.10
2023-05-19T18:36:02.061Z,1.52
2023-05-19T18:38:29.738Z,2.17
2023-05-19T18:40:57.499Z,1.80
2023-05-19T18:43:25.718Z,1.65
2023-05-19T18:45:53.646Z,1.80
2023-05-19T18:48:22.847Z,1.67
2023-05-19T18:50:51.569Z,2.00
2023-05-19T18:53:22.167Z,1.95
2023-05-19T18:55:51.779Z,1.85
2023-05-19T18:58:20.363Z,1.88
2023-05-19T19:00:48.275Z,2.05
2023-05-19T19:03:17.983Z,1.60
2023-05-19T19:05:46.307Z,2.50
2023-05-19T19:08:24.754Z,1.80
2023-05-19T19:10:53.688Z,1.80
2023-05-19T19:13:28.561Z,1.50
2023-05-19T19:15:56.947Z,1.77
2023-05-19T19:18:26.768Z,2.08
2023-05-19T19:20:57.264Z,2.22
2023-05-19T19:25:59.132Z,1.53
2023-05-19T19:28:28.220Z,1.98
2023-05-19T19:30:56.247Z,1.63
2023-05-19T19:33:25.231Z,1.83
2023-05-19T19:35:53.024Z,2.08
2023-05-19T19:38:22.121Z,1.80
2023-05-19T19:40:52.805Z,1.65
2023-05-19T19:43:21.748Z,1.90
2023-05-19T19:45:50.626Z,1.90
2023-05-19T19:48:18.277Z,1.83
2023-05-19T19:50:53.101Z,2.17
2023-05-19T19:53:21.714Z,2.08
2023-05-19T19:56:01.567Z,2.05
2023-05-19T19:58:33.529Z,1.95
2023-05-19T20:01:02.925Z,1.83
2023-05-19T20:03:35.411Z,2.47
2023-05-19T20:06:04.595Z,2.10
2023-05-19T20:08:32.840Z,1.80
2023-05-19T20:11:00.450Z,2.17
2023-05-19T20:13:28.814Z,1.80
2023-05-19T20:15:59.251Z,2.67
2023-05-19T20:18:29.960Z,1.90
2023-05-19T20:20:58.093Z,2.28
2023-05-19T20:23:25.926Z,2.25
2023-05-19T20:26:10.369Z,2.03
2023-05-19T20:28:39.913Z,2.05
2023-05-19T20:31:07.925Z,2.10
2023-05-19T20:33:38.989Z,2.15
2023-05-19T20:36:07.772Z,1.95
2023-05-19T20:38:35.987Z,2.15
2023-05-19T20:41:06.955Z,2.00
2023-05-19T20:43:34.898Z,2.25
2023-05-19T20:46:04.258Z,1.95
2023-05-19T20:48:31.992Z,2.00
2023-05-19T20:50:59.869Z,2.20
2023-05-19T20:53:28.001Z,1.90
2023-05-19T20:55:55.744Z,1.95
2023-05-19T20:58:27.102Z,2.03
2023-05-19T21:00:58.182Z,2.00
2023-05-19T21:03:27.223Z,2.03
2023-05-19T21:05:58.078Z,2.10
2023-05-19T21:08:26.560Z,1.95
2023-05-19T21:10:57.575Z,2.25
2023-05-19T21:13:26.294Z,1.90
2023-05-19T21:15:54.530Z,1.70
2023-05-19T21:18:25.280Z,1.90
2023-05-19T21:20:53.589Z,2.60
2023-05-19T21:23:25.604Z,1.55
2023-05-19T21:25:57.264Z,1.95
2023-05-19T21:28:25.019Z,1.92
2023-05-19T21:30:53.163Z,1.85
2023-05-19T21:33:25.161Z,2.20
2023-05-19T21:35:53.191Z,2.10
2023-05-19T21:38:24.331Z,1.90
2023-05-19T21:40:53.003Z,1.90
2023-05-19T21:43:23.952Z,2.03
2023-05-19T21:45:52.755Z,2.50
2023-05-19T21:48:24.831Z,2.42
2023-05-19T21:50:57.551Z,1.85
2023-05-19T21:53:33.179Z,2.22
2023-05-19T21:56:01.643Z,2.30
2023-05-19T21:58:29.974Z,1.90
2023-05-19T22:00:58.321Z,2.03
2023-05-19T22:03:27.041Z,1.77
2023-05-19T22:05:56.073Z,2.00
2023-05-19T22:08:26.169Z,2.03
2023-05-19T22:10:54.077Z,2.03
2023-05-19T22:13:24.962Z,1.98
2023-05-19T22:15:54.679Z,2.30
2023-05-19T22:18:25.555Z,2.53
2023-05-19T22:20:53.960Z,2.25
2023-05-19T22:23:24.884Z,2.40
2023-05-19T22:25:53.205Z,2.97
2023-05-19T22:28:23.904Z,2.65
2023-05-19T22:30:55.247Z,2.33
2023-05-19T22:33:23.026Z,2.67
2023-05-19T22:35:56.717Z,2.55
2023-05-19T22:38:24.973Z,2.47
2023-05-19T22:40:52.782Z,2.88
2023-05-19T22:43:24.152Z,2.92
2023-05-19T22:45:53.025Z,2.83
2023-05-19T22:48:21.950Z,2.97
2023-05-19T22:50:52.090Z,3.10
2023-05-19T22:53:21.741Z,2.72
2023-05-19T22:55:50.809Z,2.83
2023-05-19T22:58:24.576Z,3.70
2023-05-19T23:00:53.037Z,4.40
2023-05-19T23:03:21.867Z,2.90
2023-05-19T23:05:52.248Z,3.05
2023-05-19T23:08:20.447Z,2.92
2023-05-19T23:10:48.399Z,3.30
2023-05-19T23:13:18.316Z,3.10
2023-05-19T23:15:46.036Z,3.45
2023-05-19T23:18:15.348Z,3.30
2023-05-19T23:20:43.251Z,2.95
2023-05-19T23:23:11.034Z,2.97
2023-05-19T23:25:38.688Z,2.75
2023-05-19T23:28:10.356Z,3.47
2023-05-19T23:30:38.671Z,3.35
2023-05-19T23:33:06.439Z,2.80
2023-05-19T23:35:35.164Z,2.83
2023-05-19T23:38:03.318Z,3.05
2023-05-19T23:40:31.703Z,2.85
2023-05-19T23:42:59.298Z,3.30
2023-05-19T23:45:27.029Z,2.88
2023-05-19T23:47:54.648Z,3.78
2023-05-19T23:50:23.868Z,3.08
2023-05-19T23:52:55.946Z,3.10
2023-05-19T23:55:23.652Z,3.20
2023-05-19T23:57:55.110Z,2.85
